sensor_id;sensor_type;location;lat;lon;timestamp;P1;durP1;ratioP1;P2;durP2;ratioP2
15130;SDS011;7666;50.920;4.628;2024-01-30T00:02:16;11.60;;;6.80;;
15130;SDS011;7666;50.920;4.628;2024-01-30T00:05:02;11.37;;;6.00;;
15130;SDS011;7666;50.920;4.628;2024-01-30T00:07:49;9.17;;;6.10;;
15130;SDS011;7666;50.920;4.628;2024-01-30T00:10:36;9.13;;;5.50;;
15130;SDS011;7666;50.920;4.628;2024-01-30T00:13:22;6.37;;;5.40;;
15130;SDS011;7666;50.920;4.628;2024-01-30T00:16:08;6.80;;;4.97;;
15130;SDS011;7666;50.920;4.628;2024-01-30T00:18:54;9.23;;;5.33;;
15130;SDS011;7666;50.920;4.628;2024-01-30T00:21:40;6.73;;;4.90;;
15130;SDS011;7666;50.920;4.628;2024-01-30T00:24:26;7.37;;;4.80;;
15130;SDS011;7666;50.920;4.628;2024-01-30T00:27:12;7.27;;;4.97;;
15130;SDS011;7666;50.920;4.628;2024-01-30T00:29:58;5.43;;;4.50;;
15130;SDS011;7666;50.920;4.628;2024-01-30T00:32:44;6.63;;;4.87;;
15130;SDS011;7666;50.920;4.628;2024-01-30T00:35:31;5.97;;;4.23;;
15130;SDS011;7666;50.920;4.628;2024-01-30T00:38:17;5.70;;;4.53;;
15130;SDS011;7666;50.920;4.628;2024-01-30T00:41:03;5.90;;;4.83;;
15130;SDS011;7666;50.920;4.628;2024-01-30T00:43:49;5.47;;;4.63;;
15130;SDS011;7666;50.920;4.628;2024-01-30T00:46:35;5.33;;;4.67;;
15130;SDS011;7666;50.920;4.628;2024-01-30T00:49:21;6.40;;;4.23;;
15130;SDS011;7666;50.920;4.628;2024-01-30T00:52:07;6.13;;;4.33;;
15130;SDS011;7666;50.920;4.628;2024-01-30T00:54:53;4.73;;;4.23;;
15130;SDS011;7666;50.920;4.628;2024-01-30T00:57:39;5.03;;;4.40;;
15130;SDS011;7666;50.920;4.628;2024-01-30T01:00:25;6.03;;;4.70;;
15130;SDS011;7666;50.920;4.628;2024-01-30T01:03:14;7.27;;;4.70;;
15130;SDS011;7666;50.920;4.628;2024-01-30T01:06:00;6.07;;;4.60;;
15130;SDS011;7666;50.920;4.628;2024-01-30T01:08:46;7.63;;;4.80;;
15130;SDS011;7666;50.920;4.628;2024-01-30T01:11:32;8.00;;;5.20;;
15130;SDS011;7666;50.920;4.628;2024-01-30T01:14:18;6.53;;;4.47;;
15130;SDS011;7666;50.920;4.628;2024-01-30T01:17:04;6.57;;;4.63;;
15130;SDS011;7666;50.920;4.628;2024-01-30T01:19:50;5.37;;;4.40;;
15130;SDS011;7666;50.920;4.628;2024-01-30T01:22:36;7.17;;;4.97;;
15130;SDS011;7666;50.920;4.628;2024-01-30T01:25:23;4.67;;;4.17;;
15130;SDS011;7666;50.920;4.628;2024-01-30T01:28:10;4.77;;;4.27;;
15130;SDS011;7666;50.920;4.628;2024-01-30T01:30:56;6.37;;;4.60;;
15130;SDS011;7666;50.920;4.628;2024-01-30T01:33:44;5.70;;;4.50;;
15130;SDS011;7666;50.920;4.628;2024-01-30T01:36:30;6.00;;;4.60;;
15130;SDS011;7666;50.920;4.628;2024-01-30T01:39:16;7.50;;;4.83;;
15130;SDS011;7666;50.920;4.628;2024-01-30T01:42:03;6.00;;;4.57;;
15130;SDS011;7666;50.920;4.628;2024-01-30T01:44:49;5.57;;;4.63;;
15130;SDS011;7666;50.920;4.628;2024-01-30T01:47:35;6.20;;;4.90;;
15130;SDS011;7666;50.920;4.628;2024-01-30T01:50:21;5.37;;;4.60;;
15130;SDS011;7666;50.920;4.628;2024-01-30T01:53:08;7.30;;;4.60;;
15130;SDS011;7666;50.920;4.628;2024-01-30T01:55:54;5.20;;;4.60;;
15130;SDS011;7666;50.920;4.628;2024-01-30T01:58:41;5.87;;;4.80;;
15130;SDS011;7666;50.920;4.628;2024-01-30T02:01:27;7.00;;;4.80;;
15130;SDS011;7666;50.920;4.628;2024-01-30T02:04:14;5.90;;;4.50;;
15130;SDS011;7666;50.920;4.628;2024-01-30T02:07:01;5.37;;;4.73;;
15130;SDS011;7666;50.920;4.628;2024-01-30T02:09:47;6.33;;;4.50;;
15130;SDS011;7666;50.920;4.628;2024-01-30T02:12:33;5.73;;;4.60;;
15130;SDS011;7666;50.920;4.628;2024-01-30T02:15:19;4.80;;;4.10;;
15130;SDS011;7666;50.920;4.628;2024-01-30T02:18:05;4.53;;;4.03;;
15130;SDS011;7666;50.920;4.628;2024-01-30T02:20:51;5.00;;;4.13;;
15130;SDS011;7666;50.920;4.628;2024-01-30T02:23:39;6.13;;;4.60;;
15130;SDS011;7666;50.920;4.628;2024-01-30T02:26:26;6.63;;;4.77;;
15130;SDS011;7666;50.920;4.628;2024-01-30T02:29:12;5.80;;;4.70;;
15130;SDS011;7666;50.920;4.628;2024-01-30T02:31:58;8.07;;;4.73;;
15130;SDS011;7666;50.920;4.628;2024-01-30T02:34:44;6.43;;;4.10;;
15130;SDS011;7666;50.920;4.628;2024-01-30T02:37:30;6.10;;;4.30;;
15130;SDS011;7666;50.920;4.628;2024-01-30T02:40:15;4.90;;;4.40;;
15130;SDS011;7666;50.920;4.628;2024-01-30T02:43:02;5.20;;;4.00;;
15130;SDS011;7666;50.920;4.628;2024-01-30T02:45:48;4.83;;;4.10;;
15130;SDS011;7666;50.920;4.628;2024-01-30T02:48:34;6.83;;;4.57;;
15130;SDS011;7666;50.920;4.628;2024-01-30T02:51:20;4.83;;;3.90;;
15130;SDS011;7666;50.920;4.628;2024-01-30T02:54:06;8.27;;;4.57;;
15130;SDS011;7666;50.920;4.628;2024-01-30T02:56:52;4.70;;;4.20;;
15130;SDS011;7666;50.920;4.628;2024-01-30T02:59:38;5.90;;;4.30;;
15130;SDS011;7666;50.920;4.628;2024-01-30T03:02:24;5.17;;;4.10;;
15130;SDS011;7666;50.920;4.628;2024-01-30T03:05:10;5.33;;;4.53;;
15130;SDS011;7666;50.920;4.628;2024-01-30T03:07:56;4.97;;;4.10;;
15130;SDS011;7666;50.920;4.628;2024-01-30T03:10:42;5.97;;;4.03;;
15130;SDS011;7666;50.920;4.628;2024-01-30T03:13:28;6.40;;;4.30;;
15130;SDS011;7666;50.920;4.628;2024-01-30T03:16:14;5.07;;;4.40;;
15130;SDS011;7666;50.920;4.628;2024-01-30T03:19:00;6.47;;;4.17;;
15130;SDS011;7666;50.920;4.628;2024-01-30T03:21:47;6.93;;;4.13;;
15130;SDS011;7666;50.920;4.628;2024-01-30T03:24:33;4.30;;;3.90;;
15130;SDS011;7666;50.920;4.628;2024-01-30T03:27:19;6.57;;;4.40;;
15130;SDS011;7666;50.920;4.628;2024-01-30T03:30:05;8.57;;;4.40;;
15130;SDS011;7666;50.920;4.628;2024-01-30T03:32:52;5.57;;;4.33;;
15130;SDS011;7666;50.920;4.628;2024-01-30T03:35:38;6.43;;;4.37;;
15130;SDS011;7666;50.920;4.628;2024-01-30T03:38:23;5.27;;;4.17;;
15130;SDS011;7666;50.920;4.628;2024-01-30T03:41:09;6.37;;;4.43;;
15130;SDS011;7666;50.920;4.628;2024-01-30T03:43:55;5.57;;;4.27;;
15130;SDS011;7666;50.920;4.628;2024-01-30T03:46:41;6.10;;;4.40;;
15130;SDS011;7666;50.920;4.628;2024-01-30T03:49:27;6.40;;;4.37;;
15130;SDS011;7666;50.920;4.628;2024-01-30T03:52:13;5.00;;;3.97;;
15130;SDS011;7666;50.920;4.628;2024-01-30T03:54:59;4.40;;;4.00;;
15130;SDS011;7666;50.920;4.628;2024-01-30T03:57:45;7.03;;;4.47;;
15130;SDS011;7666;50.920;4.628;2024-01-30T04:00:31;8.07;;;4.60;;
15130;SDS011;7666;50.920;4.628;2024-01-30T04:03:17;8.33;;;4.30;;
15130;SDS011;7666;50.920;4.628;2024-01-30T04:06:03;7.37;;;4.60;;
15130;SDS011;7666;50.920;4.628;2024-01-30T04:08:49;4.80;;;4.10;;
15130;SDS011;7666;50.920;4.628;2024-01-30T04:11:35;6.03;;;4.47;;
15130;SDS011;7666;50.920;4.628;2024-01-30T04:14:21;6.00;;;4.63;;
15130;SDS011;7666;50.920;4.628;2024-01-30T04:17:07;5.23;;;4.13;;
15130;SDS011;7666;50.920;4.628;2024-01-30T04:19:53;7.20;;;4.73;;
15130;SDS011;7666;50.920;4.628;2024-01-30T04:22:39;6.13;;;3.97;;
15130;SDS011;7666;50.920;4.628;2024-01-30T04:25:25;7.77;;;4.40;;
15130;SDS011;7666;50.920;4.628;2024-01-30T04:28:11;6.40;;;4.40;;
15130;SDS011;7666;50.920;4.628;2024-01-30T04:30:57;5.37;;;4.27;;
15130;SDS011;7666;50.920;4.628;2024-01-30T04:33:43;7.53;;;4.77;;
15130;SDS011;7666;50.920;4.628;2024-01-30T04:36:29;6.10;;;4.40;;
15130;SDS011;7666;50.920;4.628;2024-01-30T04:39:15;6.53;;;4.53;;
15130;SDS011;7666;50.920;4.628;2024-01-30T04:42:01;6.40;;;4.53;;
15130;SDS011;7666;50.920;4.628;2024-01-30T04:44:47;6.57;;;4.50;;
15130;SDS011;7666;50.920;4.628;2024-01-30T04:47:33;6.23;;;4.40;;
15130;SDS011;7666;50.920;4.628;2024-01-30T04:50:19;5.37;;;4.43;;
15130;SDS011;7666;50.920;4.628;2024-01-30T04:53:05;6.80;;;4.73;;
15130;SDS011;7666;50.920;4.628;2024-01-30T04:55:51;5.30;;;4.20;;
15130;SDS011;7666;50.920;4.628;2024-01-30T04:58:37;6.67;;;3.80;;
15130;SDS011;7666;50.920;4.628;2024-01-30T05:01:23;6.10;;;4.60;;
15130;SDS011;7666;50.920;4.628;2024-01-30T05:04:09;6.70;;;4.90;;
15130;SDS011;7666;50.920;4.628;2024-01-30T05:06:56;6.00;;;4.37;;
15130;SDS011;7666;50.920;4.628;2024-01-30T05:09:42;5.70;;;4.63;;
15130;SDS011;7666;50.920;4.628;2024-01-30T05:12:28;6.23;;;5.03;;
15130;SDS011;7666;50.920;4.628;2024-01-30T05:15:14;6.27;;;4.80;;
15130;SDS011;7666;50.920;4.628;2024-01-30T05:18:00;5.70;;;5.10;;
15130;SDS011;7666;50.920;4.628;2024-01-30T05:20:46;5.20;;;4.50;;
15130;SDS011;7666;50.920;4.628;2024-01-30T05:23:32;5.60;;;4.47;;
15130;SDS011;7666;50.920;4.628;2024-01-30T05:26:18;6.20;;;4.40;;
15130;SDS011;7666;50.920;4.628;2024-01-30T05:29:04;8.07;;;4.53;;
15130;SDS011;7666;50.920;4.628;2024-01-30T05:31:51;6.03;;;4.60;;
15130;SDS011;7666;50.920;4.628;2024-01-30T05:34:37;4.97;;;4.47;;
15130;SDS011;7666;50.920;4.628;2024-01-30T05:37:23;6.13;;;4.70;;
15130;SDS011;7666;50.920;4.628;2024-01-30T05:40:09;5.20;;;4.53;;
15130;SDS011;7666;50.920;4.628;2024-01-30T05:42:56;5.83;;;4.50;;
15130;SDS011;7666;50.920;4.628;2024-01-30T05:45:43;7.77;;;5.07;;
15130;SDS011;7666;50.920;4.628;2024-01-30T05:48:29;7.27;;;4.40;;
15130;SDS011;7666;50.920;4.628;2024-01-30T05:51:16;5.30;;;4.80;;
15130;SDS011;7666;50.920;4.628;2024-01-30T05:54:02;6.10;;;4.43;;
15130;SDS011;7666;50.920;4.628;2024-01-30T05:56:49;7.00;;;4.80;;
15130;SDS011;7666;50.920;4.628;2024-01-30T05:59:35;6.90;;;4.80;;
15130;SDS011;7666;50.920;4.628;2024-01-30T06:02:21;9.47;;;4.50;;
15130;SDS011;7666;50.920;4.628;2024-01-30T06:05:07;5.60;;;4.60;;
15130;SDS011;7666;50.920;4.628;2024-01-30T06:07:54;5.43;;;4.60;;
15130;SDS011;7666;50.920;4.628;2024-01-30T06:10:39;4.90;;;4.40;;
15130;SDS011;7666;50.920;4.628;2024-01-30T06:13:25;6.77;;;4.60;;
15130;SDS011;7666;50.920;4.628;2024-01-30T06:16:12;5.63;;;5.07;;
15130;SDS011;7666;50.920;4.628;2024-01-30T06:18:58;6.30;;;4.87;;
15130;SDS011;7666;50.920;4.628;2024-01-30T06:21:45;5.73;;;5.13;;
15130;SDS011;7666;50.920;4.628;2024-01-30T06:24:31;5.87;;;4.97;;
15130;SDS011;7666;50.920;4.628;2024-01-30T06:27:17;7.57;;;4.90;;
15130;SDS011;7666;50.920;4.628;2024-01-30T06:30:04;6.10;;;5.00;;
15130;SDS011;7666;50.920;4.628;2024-01-30T06:32:50;5.80;;;4.97;;
15130;SDS011;7666;50.920;4.628;2024-01-30T06:35:36;6.57;;;5.17;;
15130;SDS011;7666;50.920;4.628;2024-01-30T06:38:25;7.70;;;5.43;;
15130;SDS011;7666;50.920;4.628;2024-01-30T06:41:11;6.93;;;5.10;;
15130;SDS011;7666;50.920;4.628;2024-01-30T06:43:57;5.60;;;4.93;;
15130;SDS011;7666;50.920;4.628;2024-01-30T06:46:42;6.83;;;5.33;;
15130;SDS011;7666;50.920;4.628;2024-01-30T06:49:28;6.97;;;5.00;;
15130;SDS011;7666;50.920;4.628;2024-01-30T06:52:14;5.20;;;4.33;;
15130;SDS011;7666;50.920;4.628;2024-01-30T06:55:00;5.87;;;4.67;;
15130;SDS011;7666;50.920;4.628;2024-01-30T06:57:46;5.80;;;5.13;;
15130;SDS011;7666;50.920;4.628;2024-01-30T07:00:32;9.00;;;5.20;;
15130;SDS011;7666;50.920;4.628;2024-01-30T07:03:18;6.73;;;5.47;;
15130;SDS011;7666;50.920;4.628;2024-01-30T07:06:04;8.30;;;5.20;;
15130;SDS011;7666;50.920;4.628;2024-01-30T07:08:50;7.83;;;5.40;;
15130;SDS011;7666;50.920;4.628;2024-01-30T07:11:36;9.90;;;5.93;;
15130;SDS011;7666;50.920;4.628;2024-01-30T07:14:22;6.60;;;5.27;;
15130;SDS011;7666;50.920;4.628;2024-01-30T07:17:08;6.07;;;5.23;;
15130;SDS011;7666;50.920;4.628;2024-01-30T07:19:54;6.00;;;5.40;;
15130;SDS011;7666;50.920;4.628;2024-01-30T07:22:40;6.90;;;5.50;;
15130;SDS011;7666;50.920;4.628;2024-01-30T07:25:26;8.33;;;5.40;;
15130;SDS011;7666;50.920;4.628;2024-01-30T07:28:12;8.57;;;5.47;;
15130;SDS011;7666;50.920;4.628;2024-01-30T07:30:59;6.73;;;5.20;;
15130;SDS011;7666;50.920;4.628;2024-01-30T07:33:45;6.70;;;5.60;;
15130;SDS011;7666;50.920;4.628;2024-01-30T07:36:31;7.20;;;5.80;;
15130;SDS011;7666;50.920;4.628;2024-01-30T07:39:17;8.63;;;5.83;;
15130;SDS011;7666;50.920;4.628;2024-01-30T07:42:03;8.50;;;5.67;;
15130;SDS011;7666;50.920;4.628;2024-01-30T07:44:49;7.73;;;5.60;;
15130;SDS011;7666;50.920;4.628;2024-01-30T07:47:35;7.63;;;5.47;;
15130;SDS011;7666;50.920;4.628;2024-01-30T07:50:21;7.67;;;5.53;;
15130;SDS011;7666;50.920;4.628;2024-01-30T07:53:07;7.30;;;5.87;;
15130;SDS011;7666;50.920;4.628;2024-01-30T07:55:53;8.47;;;5.70;;
15130;SDS011;7666;50.920;4.628;2024-01-30T07:58:39;6.77;;;5.17;;
15130;SDS011;7666;50.920;4.628;2024-01-30T08:01:25;6.70;;;5.33;;
15130;SDS011;7666;50.920;4.628;2024-01-30T08:04:11;6.60;;;5.07;;
15130;SDS011;7666;50.920;4.628;2024-01-30T08:06:57;9.63;;;5.47;;
15130;SDS011;7666;50.920;4.628;2024-01-30T08:09:43;7.40;;;5.60;;
15130;SDS011;7666;50.920;4.628;2024-01-30T08:12:29;6.93;;;5.10;;
15130;SDS011;7666;50.920;4.628;2024-01-30T08:15:15;8.03;;;5.40;;
15130;SDS011;7666;50.920;4.628;2024-01-30T08:18:01;6.93;;;5.07;;
15130;SDS011;7666;50.920;4.628;2024-01-30T08:20:47;8.70;;;5.53;;
15130;SDS011;7666;50.920;4.628;2024-01-30T08:23:34;9.53;;;5.70;;
15130;SDS011;7666;50.920;4.628;2024-01-30T08:26:20;7.87;;;5.67;;
15130;SDS011;7666;50.920;4.628;2024-01-30T08:29:06;7.60;;;5.20;;
15130;SDS011;7666;50.920;4.628;2024-01-30T08:31:52;10.77;;;5.67;;
15130;SDS011;7666;50.920;4.628;2024-01-30T08:34:41;8.13;;;5.57;;
15130;SDS011;7666;50.920;4.628;2024-01-30T08:37:27;7.30;;;5.53;;
15130;SDS011;7666;50.920;4.628;2024-01-30T08:40:13;10.70;;;5.67;;
15130;SDS011;7666;50.920;4.628;2024-01-30T08:42:59;7.60;;;5.60;;
15130;SDS011;7666;50.920;4.628;2024-01-30T08:45:45;9.43;;;5.70;;
15130;SDS011;7666;50.920;4.628;2024-01-30T08:48:31;10.87;;;5.70;;
15130;SDS011;7666;50.920;4.628;2024-01-30T08:51:17;8.43;;;5.47;;
15130;SDS011;7666;50.920;4.628;2024-01-30T08:54:03;9.63;;;6.00;;
15130;SDS011;7666;50.920;4.628;2024-01-30T08:56:49;8.40;;;5.20;;
15130;SDS011;7666;50.920;4.628;2024-01-30T08:59:35;13.23;;;5.70;;
15130;SDS011;7666;50.920;4.628;2024-01-30T09:02:21;11.20;;;5.77;;
15130;SDS011;7666;50.920;4.628;2024-01-30T09:05:07;9.57;;;6.20;;
15130;SDS011;7666;50.920;4.628;2024-01-30T09:07:53;12.20;;;6.67;;
15130;SDS011;7666;50.920;4.628;2024-01-30T09:10:39;9.20;;;6.10;;
15130;SDS011;7666;50.920;4.628;2024-01-30T09:13:26;10.47;;;5.83;;
15130;SDS011;7666;50.920;4.628;2024-01-30T09:16:12;7.60;;;5.83;;
15130;SDS011;7666;50.920;4.628;2024-01-30T09:18:58;10.83;;;6.20;;
15130;SDS011;7666;50.920;4.628;2024-01-30T09:21:44;9.43;;;6.63;;
15130;SDS011;7666;50.920;4.628;2024-01-30T09:24:30;8.03;;;6.47;;
15130;SDS011;7666;50.920;4.628;2024-01-30T09:27:16;10.07;;;6.43;;
15130;SDS011;7666;50.920;4.628;2024-01-30T09:30:02;9.17;;;5.70;;
15130;SDS011;7666;50.920;4.628;2024-01-30T09:32:48;10.23;;;6.00;;
15130;SDS011;7666;50.920;4.628;2024-01-30T09:35:34;10.90;;;5.80;;
15130;SDS011;7666;50.920;4.628;2024-01-30T09:38:21;11.70;;;6.43;;
15130;SDS011;7666;50.920;4.628;2024-01-30T09:41:08;10.07;;;6.53;;
15130;SDS011;7666;50.920;4.628;2024-01-30T09:43:56;9.60;;;6.37;;
15130;SDS011;7666;50.920;4.628;2024-01-30T09:46:43;10.30;;;6.50;;
15130;SDS011;7666;50.920;4.628;2024-01-30T09:49:32;9.07;;;6.30;;
15130;SDS011;7666;50.920;4.628;2024-01-30T09:52:19;11.53;;;6.47;;
15130;SDS011;7666;50.920;4.628;2024-01-30T09:55:06;10.67;;;6.43;;
15130;SDS011;7666;50.920;4.628;2024-01-30T09:57:52;13.07;;;6.67;;
15130;SDS011;7666;50.920;4.628;2024-01-30T10:00:38;12.67;;;7.00;;
15130;SDS011;7666;50.920;4.628;2024-01-30T10:03:24;10.80;;;6.83;;
15130;SDS011;7666;50.920;4.628;2024-01-30T10:06:11;14.73;;;6.70;;
15130;SDS011;7666;50.920;4.628;2024-01-30T10:08:57;13.00;;;7.83;;
15130;SDS011;7666;50.920;4.628;2024-01-30T10:11:43;13.97;;;7.97;;
15130;SDS011;7666;50.920;4.628;2024-01-30T10:14:29;10.87;;;7.90;;
15130;SDS011;7666;50.920;4.628;2024-01-30T10:17:15;11.97;;;7.47;;
15130;SDS011;7666;50.920;4.628;2024-01-30T10:20:04;13.47;;;7.90;;
15130;SDS011;7666;50.920;4.628;2024-01-30T10:22:50;11.23;;;7.77;;
15130;SDS011;7666;50.920;4.628;2024-01-30T10:25:36;12.70;;;7.73;;
15130;SDS011;7666;50.920;4.628;2024-01-30T10:28:26;11.50;;;7.93;;
15130;SDS011;7666;50.920;4.628;2024-01-30T10:31:17;12.30;;;8.33;;
15130;SDS011;7666;50.920;4.628;2024-01-30T10:34:04;10.83;;;7.63;;
15130;SDS011;7666;50.920;4.628;2024-01-30T10:36:50;16.33;;;8.73;;
15130;SDS011;7666;50.920;4.628;2024-01-30T10:39:41;11.53;;;8.50;;
15130;SDS011;7666;50.920;4.628;2024-01-30T10:42:28;14.03;;;9.37;;
15130;SDS011;7666;50.920;4.628;2024-01-30T10:45:17;14.77;;;8.37;;
15130;SDS011;7666;50.920;4.628;2024-01-30T10:48:04;11.33;;;8.20;;
15130;SDS011;7666;50.920;4.628;2024-01-30T10:50:52;13.40;;;8.03;;
15130;SDS011;7666;50.920;4.628;2024-01-30T10:53:41;16.67;;;8.93;;
15130;SDS011;7666;50.920;4.628;2024-01-30T10:56:29;13.80;;;8.60;;
15130;SDS011;7666;50.920;4.628;2024-01-30T10:59:16;11.17;;;8.23;;
15130;SDS011;7666;50.920;4.628;2024-01-30T11:02:03;17.50;;;8.57;;
15130;SDS011;7666;50.920;4.628;2024-01-30T11:04:54;11.97;;;8.00;;
15130;SDS011;7666;50.920;4.628;2024-01-30T11:07:44;12.03;;;7.43;;
15130;SDS011;7666;50.920;4.628;2024-01-30T11:10:30;15.63;;;7.93;;
15130;SDS011;7666;50.920;4.628;2024-01-30T11:13:18;12.60;;;7.87;;
15130;SDS011;7666;50.920;4.628;2024-01-30T11:16:05;13.77;;;8.03;;
15130;SDS011;7666;50.920;4.628;2024-01-30T11:18:51;16.53;;;7.20;;
15130;SDS011;7666;50.920;4.628;2024-01-30T11:21:43;10.40;;;7.07;;
15130;SDS011;7666;50.920;4.628;2024-01-30T11:24:29;11.87;;;6.43;;
15130;SDS011;7666;50.920;4.628;2024-01-30T11:27:15;9.27;;;5.93;;
15130;SDS011;7666;50.920;4.628;2024-01-30T11:30:02;13.20;;;6.30;;
15130;SDS011;7666;50.920;4.628;2024-01-30T11:33:04;12.23;;;5.87;;
15130;SDS011;7666;50.920;4.628;2024-01-30T11:35:51;8.90;;;4.33;;
15130;SDS011;7666;50.920;4.628;2024-01-30T11:38:36;8.30;;;3.87;;
15130;SDS011;7666;50.920;4.628;2024-01-30T11:41:23;5.83;;;2.40;;
15130;SDS011;7666;50.920;4.628;2024-01-30T11:44:10;4.17;;;1.90;;
15130;SDS011;7666;50.920;4.628;2024-01-30T11:46:56;4.93;;;1.90;;
15130;SDS011;7666;50.920;4.628;2024-01-30T11:49:43;4.97;;;2.00;;
15130;SDS011;7666;50.920;4.628;2024-01-30T11:52:29;5.50;;;2.53;;
15130;SDS011;7666;50.920;4.628;2024-01-30T11:55:15;5.70;;;1.97;;
15130;SDS011;7666;50.920;4.628;2024-01-30T11:58:01;4.87;;;2.00;;
15130;SDS011;7666;50.920;4.628;2024-01-30T12:00:56;5.00;;;1.97;;
15130;SDS011;7666;50.920;4.628;2024-01-30T12:03:48;4.23;;;1.93;;
15130;SDS011;7666;50.920;4.628;2024-01-30T12:06:35;6.20;;;2.00;;
15130;SDS011;7666;50.920;4.628;2024-01-30T12:09:21;5.73;;;1.67;;
15130;SDS011;7666;50.920;4.628;2024-01-30T12:12:08;4.13;;;1.70;;
15130;SDS011;7666;50.920;4.628;2024-01-30T12:14:57;4.47;;;1.20;;
15130;SDS011;7666;50.920;4.628;2024-01-30T12:17:43;3.83;;;1.13;;
15130;SDS011;7666;50.920;4.628;2024-01-30T12:20:29;3.13;;;0.97;;
15130;SDS011;7666;50.920;4.628;2024-01-30T12:23:15;5.43;;;1.23;;
15130;SDS011;7666;50.920;4.628;2024-01-30T12:26:01;3.63;;;1.10;;
15130;SDS011;7666;50.920;4.628;2024-01-30T12:28:55;2.27;;;1.10;;
15130;SDS011;7666;50.920;4.628;2024-01-30T12:31:43;3.50;;;1.00;;
15130;SDS011;7666;50.920;4.628;2024-01-30T12:34:29;3.87;;;1.07;;
15130;SDS011;7666;50.920;4.628;2024-01-30T12:37:15;1.50;;;0.80;;
15130;SDS011;7666;50.920;4.628;2024-01-30T12:40:07;1.93;;;0.70;;
15130;SDS011;7666;50.920;4.628;2024-01-30T12:42:54;3.70;;;0.90;;
15130;SDS011;7666;50.920;4.628;2024-01-30T12:45:41;2.50;;;0.67;;
15130;SDS011;7666;50.920;4.628;2024-01-30T12:48:27;2.13;;;0.83;;
15130;SDS011;7666;50.920;4.628;2024-01-30T12:51:15;3.03;;;0.90;;
15130;SDS011;7666;50.920;4.628;2024-01-30T12:54:04;2.37;;;0.77;;
15130;SDS011;7666;50.920;4.628;2024-01-30T12:56:51;2.37;;;0.90;;
15130;SDS011;7666;50.920;4.628;2024-01-30T12:59:36;1.73;;;0.67;;
15130;SDS011;7666;50.920;4.628;2024-01-30T13:02:22;3.47;;;0.77;;
15130;SDS011;7666;50.920;4.628;2024-01-30T13:05:09;5.63;;;0.63;;
15130;SDS011;7666;50.920;4.628;2024-01-30T13:07:55;3.23;;;0.83;;
15130;SDS011;7666;50.920;4.628;2024-01-30T13:10:42;3.83;;;0.77;;
15130;SDS011;7666;50.920;4.628;2024-01-30T13:13:28;3.00;;;1.00;;
15130;SDS011;7666;50.920;4.628;2024-01-30T13:16:14;2.47;;;0.70;;
15130;SDS011;7666;50.920;4.628;2024-01-30T13:19:00;2.47;;;0.80;;
15130;SDS011;7666;50.920;4.628;2024-01-30T13:21:47;3.73;;;1.00;;
15130;SDS011;7666;50.920;4.628;2024-01-30T13:24:33;7.00;;;1.30;;
15130;SDS011;7666;50.920;4.628;2024-01-30T13:27:19;3.40;;;1.10;;
15130;SDS011;7666;50.920;4.628;2024-01-30T13:30:06;6.67;;;1.00;;
15130;SDS011;7666;50.920;4.628;2024-01-30T13:32:54;5.63;;;1.57;;
15130;SDS011;7666;50.920;4.628;2024-01-30T13:35:40;5.40;;;1.13;;
15130;SDS011;7666;50.920;4.628;2024-01-30T13:38:26;3.63;;;1.00;;
15130;SDS011;7666;50.920;4.628;2024-01-30T13:41:12;5.63;;;1.37;;
15130;SDS011;7666;50.920;4.628;2024-01-30T13:43:58;5.70;;;1.40;;
15130;SDS011;7666;50.920;4.628;2024-01-30T13:46:44;5.90;;;1.40;;
15130;SDS011;7666;50.920;4.628;2024-01-30T13:49:31;3.40;;;1.23;;
15130;SDS011;7666;50.920;4.628;2024-01-30T13:52:17;3.63;;;0.90;;
15130;SDS011;7666;50.920;4.628;2024-01-30T13:55:03;4.87;;;1.20;;
15130;SDS011;7666;50.920;4.628;2024-01-30T13:57:49;6.00;;;1.30;;
15130;SDS011;7666;50.920;4.628;2024-01-30T14:00:35;3.70;;;1.00;;
15130;SDS011;7666;50.920;4.628;2024-01-30T14:03:21;4.43;;;1.03;;
15130;SDS011;7666;50.920;4.628;2024-01-30T14:06:07;3.20;;;1.00;;
15130;SDS011;7666;50.920;4.628;2024-01-30T14:08:53;3.00;;;1.10;;
15130;SDS011;7666;50.920;4.628;2024-01-30T14:11:39;5.20;;;1.00;;
15130;SDS011;7666;50.920;4.628;2024-01-30T14:14:25;5.83;;;1.30;;
15130;SDS011;7666;50.920;4.628;2024-01-30T14:17:11;4.13;;;1.03;;
15130;SDS011;7666;50.920;4.628;2024-01-30T14:19:57;3.20;;;0.83;;
15130;SDS011;7666;50.920;4.628;2024-01-30T14:22:43;3.20;;;0.90;;
15130;SDS011;7666;50.920;4.628;2024-01-30T14:25:29;4.40;;;1.13;;
15130;SDS011;7666;50.920;4.628;2024-01-30T14:28:15;4.27;;;1.00;;
15130;SDS011;7666;50.920;4.628;2024-01-30T14:31:01;4.03;;;1.20;;
15130;SDS011;7666;50.920;4.628;2024-01-30T14:33:47;5.87;;;1.23;;
15130;SDS011;7666;50.920;4.628;2024-01-30T14:36:33;4.17;;;1.27;;
15130;SDS011;7666;50.920;4.628;2024-01-30T14:39:19;6.67;;;1.47;;
15130;SDS011;7666;50.920;4.628;2024-01-30T14:42:05;3.20;;;1.30;;
15130;SDS011;7666;50.920;4.628;2024-01-30T14:44:51;4.80;;;1.27;;
15130;SDS011;7666;50.920;4.628;2024-01-30T14:47:37;2.90;;;1.00;;
15130;SDS011;7666;50.920;4.628;2024-01-30T14:50:23;3.43;;;1.00;;
15130;SDS011;7666;50.920;4.628;2024-01-30T14:53:09;2.43;;;0.93;;
15130;SDS011;7666;50.920;4.628;2024-01-30T14:55:55;4.53;;;1.27;;
15130;SDS011;7666;50.920;4.628;2024-01-30T14:58:41;3.43;;;1.40;;
15130;SDS011;7666;50.920;4.628;2024-01-30T15:01:28;4.77;;;1.20;;
15130;SDS011;7666;50.920;4.628;2024-01-30T15:04:14;2.90;;;1.13;;
15130;SDS011;7666;50.920;4.628;2024-01-30T15:07:00;2.17;;;1.00;;
15130;SDS011;7666;50.920;4.628;2024-01-30T15:09:47;3.73;;;1.10;;
15130;SDS011;7666;50.920;4.628;2024-01-30T15:12:33;5.63;;;1.20;;
15130;SDS011;7666;50.920;4.628;2024-01-30T15:15:18;3.83;;;1.37;;
15130;SDS011;7666;50.920;4.628;2024-01-30T15:18:04;3.60;;;1.30;;
15130;SDS011;7666;50.920;4.628;2024-01-30T15:20:51;5.03;;;1.37;;
15130;SDS011;7666;50.920;4.628;2024-01-30T15:23:36;5.57;;;1.13;;
15130;SDS011;7666;50.920;4.628;2024-01-30T15:26:22;5.63;;;1.40;;
15130;SDS011;7666;50.920;4.628;2024-01-30T15:29:08;3.67;;;1.00;;
15130;SDS011;7666;50.920;4.628;2024-01-30T15:31:54;4.90;;;1.20;;
15130;SDS011;7666;50.920;4.628;2024-01-30T15:34:40;2.63;;;0.97;;
15130;SDS011;7666;50.920;4.628;2024-01-30T15:37:26;5.57;;;1.10;;
15130;SDS011;7666;50.920;4.628;2024-01-30T15:40:13;2.13;;;0.90;;
15130;SDS011;7666;50.920;4.628;2024-01-30T15:42:59;1.47;;;0.80;;
15130;SDS011;7666;50.920;4.628;2024-01-30T15:45:45;2.93;;;1.10;;
15130;SDS011;7666;50.920;4.628;2024-01-30T15:48:31;4.77;;;1.10;;
15130;SDS011;7666;50.920;4.628;2024-01-30T15:51:17;3.30;;;0.93;;
15130;SDS011;7666;50.920;4.628;2024-01-30T15:54:03;2.67;;;0.90;;
15130;SDS011;7666;50.920;4.628;2024-01-30T15:56:49;3.90;;;0.87;;
15130;SDS011;7666;50.920;4.628;2024-01-30T15:59:36;3.50;;;1.20;;
15130;SDS011;7666;50.920;4.628;2024-01-30T16:02:22;2.60;;;0.90;;
15130;SDS011;7666;50.920;4.628;2024-01-30T16:05:08;3.10;;;1.00;;
15130;SDS011;7666;50.920;4.628;2024-01-30T16:07:54;2.73;;;0.90;;
15130;SDS011;7666;50.920;4.628;2024-01-30T16:10:40;4.07;;;1.03;;
15130;SDS011;7666;50.920;4.628;2024-01-30T16:13:26;2.53;;;1.20;;
15130;SDS011;7666;50.920;4.628;2024-01-30T16:16:12;2.63;;;1.00;;
15130;SDS011;7666;50.920;4.628;2024-01-30T16:18:58;2.80;;;1.00;;
15130;SDS011;7666;50.920;4.628;2024-01-30T16:21:44;2.87;;;1.30;;
15130;SDS011;7666;50.920;4.628;2024-01-30T16:24:31;4.37;;;1.03;;
15130;SDS011;7666;50.920;4.628;2024-01-30T16:27:17;3.87;;;1.20;;
15130;SDS011;7666;50.920;4.628;2024-01-30T16:30:03;4.50;;;1.33;;
15130;SDS011;7666;50.920;4.628;2024-01-30T16:32:49;4.77;;;1.10;;
15130;SDS011;7666;50.920;4.628;2024-01-30T16:35:36;4.00;;;1.30;;
15130;SDS011;7666;50.920;4.628;2024-01-30T16:38:22;3.40;;;1.40;;
15130;SDS011;7666;50.920;4.628;2024-01-30T16:41:08;3.67;;;1.43;;
15130;SDS011;7666;50.920;4.628;2024-01-30T16:43:54;3.00;;;1.30;;
15130;SDS011;7666;50.920;4.628;2024-01-30T16:46:40;2.93;;;1.40;;
15130;SDS011;7666;50.920;4.628;2024-01-30T16:49:27;4.63;;;1.40;;
15130;SDS011;7666;50.920;4.628;2024-01-30T16:52:13;3.40;;;1.83;;
15130;SDS011;7666;50.920;4.628;2024-01-30T16:54:58;5.40;;;2.10;;
15130;SDS011;7666;50.920;4.628;2024-01-30T16:57:44;4.33;;;2.23;;